メインページ
METAR-TAF:

METAR-TAF

空港 :

関西国際空港, 日本

緯度: 34-25N, 経度: 135-15E, 海抜: 5m

現時点の気象観測

当レポートは40分前の11:30(UTC)に作成
東/北東の風 5kt
気温 20°C
湿度 68%
気圧 1010 hPa
視程10km以上
高度3000ftの雲はほとんどない
高度13000ftの雲は散在している
千切れ雲あり

METAR: RJBB 161130Z 07005KT 9999 FEW030 SCT130 BKN/// 20/14 Q1010 NOSIG

時間: 21:10 (12:10 UTC)

予報

当レポートは58分前の11:12(UTC)に作成
予報は16日の 12時(UTC)から 17日の 18時(UTC)まで有効
北東の風 12kt
視程10km以上
高度3000ftの雲はほとんどない
高度4500ftの雲は散在している
17日の 00時(UTC)から 17日の 03時(UTC)まで徐々に
北西の風 6kt
17日の 06時(UTC)から 17日の 09時(UTC)まで徐々に
北東の風 11kt

TAF: RJBB 161112Z 1612/1718 04012KT 9999 FEW030 SCT045 BECMG 1700/1703 31006KT BECMG 1706/1709 05011KT

4,000以上の空港の気象観測と天気予報(METAR報とTAF報)

利用可能な観測所は地図上に黄色い丸と赤い丸で示す。

丸の上にカーソルを重ねると観測所名を参照できる。

次にクリックすると気象観測と天気予報を参照できる。

マップの切り替え:黒色「×」印の緑ボタンをクリックして拡大、「-」印の緑ボタンをクリックして縮小、緑色の三角印をクリックして隣りの地図に切り替え


METAR-TAF: